| time (UTC) | temp C | wind direction | speed KPH | gust KPH | rain 1hr cm | rain 24hr cm | rain mn cm | humidity % | barometer mb |
| 20260831055507 | 20 | 154 | 0.0 | 0.0 | 0.00 | 1.65 | 0.00 | 96 | 1015.6 |
| 20260831055006 | 20 | 154 | 0.0 | 0.0 | 0.00 | 1.65 | 0.00 | 96 | 1015.6 |
| 20260831054506 | 20 | 154 | 0.0 | 0.0 | 0.00 | 1.65 | 0.00 | 96 | 1015.6 |
| 20260831054006 | 20 | 154 | 0.0 | 0.0 | 0.00 | 1.65 | 0.00 | 96 | 1015.4 |
| 20260831053504 | 20 | 154 | 0.0 | 0.0 | 0.00 | 1.65 | 0.00 | 96 | 1015.4 |
| 20260831053004 | 20 | 154 | 0.0 | 0.0 | 0.00 | 1.65 | 0.00 | 96 | 1015.4 |
| 20260831052503 | 20 | 154 | 0.0 | 0.0 | 0.00 | 1.65 | 0.00 | 96 | 1015.3 |
| 20260831052001 | 20 | 154 | 0.0 | 0.0 | 0.00 | 1.65 | 0.00 | 96 | 1015.3 |
| 20260831051601 | 20 | 154 | 0.0 | 0.0 | 0.00 | 1.65 | 0.00 | 96 | 1015.3 |
| 20260831051059 | 20 | 154 | 0.0 | 0.0 | 0.00 | 1.65 | 0.00 | 96 | 1015.3 |
| 20260831050558 | 20 | 154 | 0.0 | 0.0 | 0.00 | 1.65 | 0.00 | 96 | 1015.3 |
| 20260831050058 | 21 | 154 | 0.0 | 0.0 | 0.00 | 1.65 | 0.00 | 96 | 1015.3 |
| 20260831045557 | 21 | 154 | 0.0 | 0.0 | 0.00 | 1.65 | 0.00 | 96 | 1015.3 |
| 20260831045057 | 21 | 154 | 0.0 | 0.0 | 0.00 | 1.65 | 0.00 | 96 | 1015.1 |
| 20260831044558 | 21 | 154 | 0.0 | 0.0 | 0.00 | 1.65 | 0.00 | 96 | 1015.2 |
| 20260831044054 | 21 | 152 | 0.0 | 0.0 | 0.03 | 1.65 | 0.00 | 96 | 1015.2 |
| 20260831043554 | 21 | 152 | 0.0 | 0.0 | 0.28 | 1.65 | 0.00 | 96 | 1015.1 |
| 20260831043053 | 21 | 152 | 0.0 | 0.0 | 0.51 | 1.65 | 0.00 | 96 | 1015.2 |
| 20260831042555 | 21 | 152 | 0.0 | 0.0 | 0.79 | 1.65 | 0.00 | 96 | 1015.1 |
| 20260831042051 | 21 | 152 | 0.0 | 0.0 | 0.91 | 1.65 | 0.00 | 96 | 1015.2 |
| 20260831041559 | 21 | 152 | 0.0 | 0.0 | 1.04 | 1.65 | 0.00 | 96 | 1015.1 |
| 20260831041053 | 21 | 152 | 0.0 | 0.0 | 1.17 | 1.65 | 0.00 | 96 | 1015.1 |
| 20260831040548 | 21 | 152 | 0.0 | 0.0 | 1.35 | 1.65 | 0.00 | 96 | 1015.2 |
| 20260831040046 | 21 | 152 | 0.0 | 0.0 | 1.42 | 1.65 | 0.00 | 95 | 1015.0 |
| 20260831035647 | 21 | 152 | 0.0 | 0.0 | 1.45 | 1.65 | 1.65 | 95 | 1015.0 |
| 20260831035046 | 21 | 152 | 0.0 | 6.4 | 1.50 | 1.65 | 1.65 | 95 | 1015.0 |
| 20260831034546 | 21 | 152 | 0.0 | 6.4 | 1.55 | 1.65 | 1.65 | 95 | 1015.0 |
| 20260831034046 | 21 | 323 | 0.0 | 1.6 | 1.50 | 1.60 | 1.60 | 96 | 1015.2 |
| 20260831033545 | 21 | 306 | 0.0 | 1.6 | 1.30 | 1.35 | 1.35 | 95 | 1015.1 |
| 20260831033046 | 21 | 185 | 0.0 | 1.6 | 1.12 | 1.14 | 1.14 | 95 | 1015.3 |
| 20260831032546 | 21 | 185 | 0.0 | 1.6 | 0.84 | 0.84 | 0.84 | 95 | 1015.2 |
| 20260831032045 | 21 | 185 | 0.0 | 1.6 | 0.71 | 0.71 | 0.71 | 94 | 1015.2 |
| 20260831031544 | 21 | 184 | 0.0 | 1.6 | 0.61 | 0.61 | 0.61 | 94 | 1015.2 |
| 20260831031047 | 21 | 184 | 0.0 | 0.0 | 0.46 | 0.46 | 0.46 | 94 | 1015.3 |
| 20260831030546 | 21 | 183 | 0.0 | 0.0 | 0.28 | 0.28 | 0.28 | 93 | 1015.2 |
| 20260831030043 | 22 | 183 | 0.0 | 0.0 | 0.23 | 0.23 | 0.23 | 93 | 1015.4 |
| 20260831025542 | 22 | 183 | 0.0 | 0.0 | 0.18 | 0.18 | 0.18 | 93 | 1015.4 |
| 20260831025042 | 22 | 183 | 0.0 | 0.0 | 0.13 | 0.13 | 0.13 | 92 | 1015.2 |
| 20260831024543 | 22 | 183 | 0.0 | 0.0 | 0.10 | 0.10 | 0.10 | 92 | 1015.2 |
| 20260831024042 | 22 | 183 | 0.0 | 0.0 | 0.10 | 0.10 | 0.10 | 91 | 1015.2 |
| 20260831023540 | 22 | 183 | 0.0 | 1.6 | 0.05 | 0.05 | 0.05 | 91 | 1015.3 |
| 20260831023041 | 22 | 182 | 0.0 | 1.6 | 0.03 | 0.03 | 0.03 | 90 | 1015.3 |
| 20260831022540 | 22 | 212 | 0.0 | 1.6 | 0.00 | 0.00 | 0.00 | 90 | 1015.3 |
| 20260831022040 | 22 | 206 | 0.0 | 1.6 | 0.00 | 0.00 | 0.00 | 90 | 1015.2 |
| 20260831021541 | 22 | 207 | 0.0 | 1.6 | 0.00 | 0.00 | 0.00 | 90 | 1015.1 |
| 20260831021045 | 22 | 206 | 0.0 | 1.6 | 0.00 | 0.00 | 0.00 | 89 | 1015.2 |
| 20260831020540 | 22 | 207 | 0.0 | 3.2 | 0.00 | 0.00 | 0.00 | 89 | 1015.2 |
| 20260831020039 | 22 | 187 | 0.0 | 3.2 | 0.00 | 0.00 | 0.00 | 89 | 1015.2 |
| 20260831015539 | 22 | 202 | 0.0 | 1.6 | 0.00 | 0.00 | 0.00 | 89 | 1015.3 |
| 20260831015039 | 22 | 202 | 0.0 | 1.6 | 0.00 | 0.00 | 0.00 | 89 | 1015.3 |
| 20260831014555 | 22 | 186 | 0.0 | 1.6 | 0.00 | 0.00 | 0.00 | 88 | 1015.3 |
| 20260831014039 | 22 | 204 | 0.0 | 3.2 | 0.00 | 0.00 | 0.00 | 88 | 1015.3 |
| 20260831013538 | 22 | 197 | 0.0 | 3.2 | 0.00 | 0.00 | 0.00 | 88 | 1015.2 |
| 20260831013046 | 22 | 193 | 0.0 | 3.2 | 0.00 | 0.00 | 0.00 | 88 | 1015.3 |
| 20260831012538 | 22 | 200 | 0.0 | 3.2 | 0.00 | 0.00 | 0.00 | 88 | 1015.4 |
| 20260831012038 | 23 | 209 | 0.0 | 3.2 | 0.00 | 0.00 | 0.00 | 88 | 1015.3 |
| 20260831011538 | 23 | 197 | 0.0 | 3.2 | 0.00 | 0.00 | 0.00 | 87 | 1015.3 |
| 20260831011036 | 23 | 222 | 0.0 | 3.2 | 0.00 | 0.00 | 0.00 | 86 | 1015.3 |
| 20260831010536 | 23 | 199 | 0.0 | 8.0 | 0.00 | 0.00 | 0.00 | 86 | 1015.4 |
| 20260831010037 | 23 | 192 | 0.0 | 8.0 | 0.00 | 0.00 | 0.00 | 85 | 1015.3 |
| 20260831005537 | 23 | 204 | 0.0 | 8.0 | 0.00 | 0.00 | 0.00 | 85 | 1015.3 |
| 20260831005036 | 23 | 185 | 0.0 | 4.8 | 0.00 | 0.00 | 0.00 | 85 | 1015.3 |
| 20260831004539 | 23 | 197 | 0.0 | 4.8 | 0.00 | 0.00 | 0.00 | 85 | 1015.1 |
| 20260831004037 | 23 | 197 | 0.0 | 0.0 | 0.00 | 0.00 | 0.00 | 85 | 1015.1 |
| 20260831003536 | 23 | 195 | 0.0 | 1.6 | 0.00 | 0.00 | 0.00 | 85 | 1015.2 |
| 20260831003047 | 23 | 197 | 0.0 | 3.2 | 0.00 | 0.00 | 0.00 | 84 | 1015.1 |
| 20260831002540 | 23 | 195 | 0.0 | 6.4 | 0.00 | 0.00 | 0.00 | 83 | 1015.0 |
| 20260831002036 | 23 | 177 | 0.0 | 6.4 | 0.00 | 0.00 | 0.00 | 83 | 1015.0 |
| 20260831001546 | 23 | 193 | 0.0 | 6.4 | 0.00 | 0.00 | 0.00 | 83 | 1015.0 |
| 20260831001036 | 23 | 204 | 0.0 | 6.4 | 0.00 | 0.00 | 0.00 | 82 | 1014.9 |
| 20260831000536 | 23 | 180 | 0.0 | 6.4 | 0.00 | 0.00 | 0.00 | 82 | 1014.9 |
| 20260831000041 | 23 | 192 | 0.0 | 3.2 | 0.00 | 0.00 | 0.00 | 82 | 1014.9 |
| 20260830235538 | 23 | 190 | 0.0 | 3.2 | 0.00 | 0.00 | 0.00 | 81 | 1014.8 |
| 20260830235037 | 23 | 197 | 0.0 | 3.2 | 0.00 | 0.00 | 0.00 | 81 | 1014.8 |
| 20260830234534 | 23 | 185 | 0.0 | 1.6 | 0.00 | 0.00 | 0.00 | 80 | 1014.9 |
| 20260830234034 | 23 | 178 | 0.0 | 0.0 | 0.00 | 0.00 | 0.00 | 80 | 1014.8 |
| 20260830233533 | 23 | 202 | 0.0 | 0.0 | 0.00 | 0.00 | 0.00 | 79 | 1014.7 |
| 20260830233037 | 23 | 183 | 0.0 | 0.0 | 0.00 | 0.00 | 0.00 | 78 | 1014.8 |
| 20260830232536 | 23 | 199 | 0.0 | 0.0 | 0.00 | 0.00 | 0.00 | 78 | 1014.7 |
| 20260830232033 | 23 | 199 | 0.0 | 1.6 | 0.00 | 0.00 | 0.00 | 77 | 1014.9 |
| 20260830231534 | 23 | 189 | 0.0 | 1.6 | 0.00 | 0.00 | 0.00 | 77 | 1014.9 |
| 20260830231032 | 23 | 190 | 0.0 | 3.2 | 0.00 | 0.00 | 0.00 | 76 | 1014.8 |
| 20260830230531 | 23 | 195 | 0.0 | 3.2 | 0.00 | 0.00 | 0.00 | 76 | 1014.8 |
| 20260830230032 | 24 | 199 | 0.0 | 1.6 | 0.00 | 0.00 | 0.00 | 75 | 1014.8 |
| 20260830225531 | 24 | 196 | 0.0 | 0.0 | 0.00 | 0.00 | 0.00 | 74 | 1014.7 |
| 20260830225031 | 24 | 195 | 0.0 | 3.2 | 0.00 | 0.00 | 0.00 | 74 | 1014.8 |
| 20260830224531 | 24 | 197 | 0.0 | 3.2 | 0.00 | 0.00 | 0.00 | 73 | 1014.9 |
| 20260830224030 | 24 | 197 | 0.0 | 1.6 | 0.00 | 0.00 | 0.00 | 72 | 1014.9 |
| 20260830223531 | 24 | 200 | 0.0 | 6.4 | 0.00 | 0.00 | 0.00 | 72 | 1015.0 |
| 20260830223030 | 24 | 211 | 0.0 | 6.4 | 0.00 | 0.00 | 0.00 | 71 | 1015.0 |
| 20260830222528 | 24 | 205 | 0.0 | 3.2 | 0.00 | 0.00 | 0.00 | 70 | 1015.1 |
| 20260830222028 | 24 | 159 | 0.0 | 3.2 | 0.00 | 0.00 | 0.00 | 69 | 1015.2 |
| 20260830221528 | 24 | 194 | 0.0 | 3.2 | 0.00 | 0.00 | 0.00 | 69 | 1015.1 |
| 20260830221027 | 25 | 177 | 0.0 | 4.8 | 0.00 | 0.00 | 0.00 | 68 | 1015.1 |
| 20260830220528 | 25 | 200 | 0.0 | 4.8 | 0.00 | 0.00 | 0.00 | 68 | 1015.1 |
| 20260830220028 | 25 | 215 | 0.0 | 4.8 | 0.00 | 0.00 | 0.00 | 67 | 1015.2 |
| 20260830215528 | 25 | 195 | 0.0 | 4.8 | 0.00 | 0.00 | 0.00 | 67 | 1015.2 |
| 20260830215027 | 25 | 199 | 0.0 | 4.8 | 0.00 | 0.00 | 0.00 | 66 | 1015.2 |
| 20260830214539 | 25 | 208 | 0.0 | 4.8 | 0.00 | 0.00 | 0.00 | 65 | 1015.1 |
| 20260830214027 | 25 | 194 | 0.0 | 4.8 | 0.00 | 0.00 | 0.00 | 65 | 1015.2 |
| 20260830213526 | 25 | 209 | 0.0 | 3.2 | 0.00 | 0.00 | 0.00 | 65 | 1015.2 |
| 20260830213027 | 25 | 187 | 0.0 | 4.8 | 0.00 | 0.00 | 0.00 | 64 | 1015.2 |
| 20260830212526 | 25 | 213 | 0.0 | 4.8 | 0.00 | 0.00 | 0.00 | 63 | 1015.2 |
| 20260830212027 | 25 | 204 | 0.0 | 4.8 | 0.00 | 0.00 | 0.00 | 63 | 1015.3 |
| 20260830211529 | 25 | 145 | 0.0 | 4.8 | 0.00 | 0.00 | 0.00 | 62 | 1015.3 |
| 20260830211025 | 25 | 204 | 0.0 | 3.2 | 0.00 | 0.00 | 0.00 | 62 | 1015.3 |
| 20260830210525 | 25 | 171 | 0.0 | 3.2 | 0.00 | 0.00 | 0.00 | 61 | 1015.2 |
| 20260830210031 | 26 | 197 | 0.0 | 3.2 | 0.00 | 0.00 | 0.00 | 60 | 1015.2 |
| 20260830205530 | 26 | 197 | 0.0 | 4.8 | 0.00 | 0.00 | 0.00 | 60 | 1015.2 |
| 20260830205024 | 26 | 198 | 0.0 | 4.8 | 0.00 | 0.00 | 0.00 | 58 | 1015.2 |
| 20260830204529 | 26 | 201 | 0.0 | 4.8 | 0.00 | 0.00 | 0.00 | 58 | 1015.2 |
| 20260830204025 | 26 | 195 | 0.0 | 4.8 | 0.00 | 0.00 | 0.00 | 58 | 1015.3 |
| 20260830203525 | 26 | 188 | 0.0 | 3.2 | 0.00 | 0.00 | 0.00 | 58 | 1015.4 |
| 20260830203027 | 26 | 209 | 0.0 | 6.4 | 0.00 | 0.00 | 0.00 | 57 | 1015.4 |
| 20260830202525 | 26 | 190 | 0.0 | 8.0 | 0.00 | 0.00 | 0.00 | 55 | 1015.4 |
| 20260830202026 | 27 | 209 | 1.6 | 8.0 | 0.00 | 0.00 | 0.00 | 53 | 1015.3 |
| 20260830201523 | 27 | 202 | 1.6 | 8.0 | 0.00 | 0.00 | 0.00 | 54 | 1015.3 |
| 20260830201026 | 27 | 195 | 0.0 | 4.8 | 0.00 | 0.00 | 0.00 | 56 | 1015.2 |
| 20260830200523 | 27 | 173 | 0.0 | 4.8 | 0.00 | 0.00 | 0.00 | 55 | 1015.2 |
| 20260830200022 | 27 | 204 | 0.0 | 3.2 | 0.00 | 0.00 | 0.00 | 55 | 1015.3 |
| 20260830195523 | 27 | 226 | 0.0 | 6.4 | 0.00 | 0.00 | 0.00 | 55 | 1015.4 |
| 20260830195021 | 28 | 188 | 1.6 | 6.4 | 0.00 | 0.00 | 0.00 | 53 | 1015.4 |
| 20260830194524 | 28 | 190 | 0.0 | 4.8 | 0.00 | 0.00 | 0.00 | 53 | 1015.4 |
| 20260830194020 | 28 | 169 | 0.0 | 4.8 | 0.00 | 0.00 | 0.00 | 53 | 1015.6 |
| 20260830193519 | 28 | 195 | 0.0 | 4.8 | 0.00 | 0.00 | 0.00 | 54 | 1015.6 |
| 20260830193019 | 28 | 178 | 0.0 | 4.8 | 0.00 | 0.00 | 0.00 | 51 | 1015.7 |
| 20260830192517 | 28 | 218 | 0.0 | 9.7 | 0.00 | 0.00 | 0.00 | 51 | 1015.9 |
| 20260830192016 | 28 | 182 | 1.6 | 9.7 | 0.00 | 0.00 | 0.00 | 51 | 1015.8 |
| 20260830191520 | 28 | 150 | 0.0 | 4.8 | 0.00 | 0.00 | 0.00 | 54 | 1016.0 |
| 20260830191013 | 27 | 216 | 0.0 | 4.8 | 0.00 | 0.00 | 0.00 | 54 | 1016.2 |
| 20260830190513 | 27 | 203 | 0.0 | 3.2 | 0.00 | 0.00 | 0.00 | 54 | 1016.2 |
| 20260830190012 | 27 | 204 | 0.0 | 3.2 | 0.00 | 0.00 | 0.00 | 53 | 1016.2 |
| 20260830185514 | 28 | 183 | 0.0 | 8.0 | 0.00 | 0.00 | 0.00 | 54 | 1016.2 |
| 20260830185011 | 28 | 194 | 0.0 | 8.0 | 0.00 | 0.00 | 0.00 | 53 | 1016.4 |
| 20260830184509 | 28 | 206 | 0.0 | 8.0 | 0.00 | 0.00 | 0.00 | 51 | 1016.4 |
| 20260830184008 | 28 | 199 | 0.0 | 6.4 | 0.00 | 0.00 | 0.00 | 52 | 1016.4 |
| 20260830183507 | 29 | 211 | 0.0 | 4.8 | 0.00 | 0.00 | 0.00 | 52 | 1016.3 |
| 20260830183006 | 29 | 230 | 1.6 | 4.8 | 0.00 | 0.00 | 0.00 | 50 | 1016.4 |
| 20260830182505 | 30 | 188 | 1.6 | 8.0 | 0.00 | 0.00 | 0.00 | 51 | 1016.3 |
| 20260830182004 | 29 | 204 | 1.6 | 8.0 | 0.00 | 0.00 | 0.00 | 50 | 1016.4 |
| 20260830181502 | 30 | 204 | 1.6 | 4.8 | 0.00 | 0.00 | 0.00 | 51 | 1016.5 |
| 20260830181002 | 30 | 207 | 0.0 | 8.0 | 0.00 | 0.00 | 0.00 | 53 | 1016.7 |
| 20260830180600 | 30 | 195 | 0.0 | 8.0 | 0.00 | 0.00 | 0.00 | 54 | 1016.8 |
| 20260830180101 | 29 | 202 | 1.6 | 8.0 | 0.00 | 0.00 | 0.00 | 52 | 1016.8 |
| 20260830180002 | 29 | 157 | 1.6 | 8.0 | 0.00 | 0.00 | 0.00 | 51 | 1016.8 |
| 20260830175559 | 29 | 180 | 0.0 | 6.4 | 0.00 | 0.00 | 0.00 | 51 | 1016.9 |
| 20260830175102 | 29 | 199 | 1.6 | 8.0 | 0.00 | 0.00 | 0.00 | 51 | 1016.9 |
| 20260830174559 | 29 | 187 | 0.0 | 8.0 | 0.00 | 0.00 | 0.00 | 51 | 1017.0 |
| 20260830174058 | 30 | 209 | 0.0 | 4.8 | 0.00 | 0.00 | 0.00 | 50 | 1016.9 |
| 20260830173559 | 30 | 207 | 1.6 | 9.7 | 0.00 | 0.00 | 0.00 | 50 | 1016.9 |
| 20260830173058 | 30 | 178 | 3.2 | 9.7 | 0.00 | 0.00 | 0.00 | 50 | 1017.0 |
| 20260830172601 | 30 | 316 | 1.6 | 9.7 | 0.00 | 0.00 | 0.00 | 51 | 1017.1 |
| 20260830172055 | 29 | 165 | 0.0 | 8.0 | 0.00 | 0.00 | 0.00 | 52 | 1017.0 |
| 20260830171606 | 29 | 212 | 0.0 | 6.4 | 0.00 | 0.00 | 0.00 | 53 | 1017.2 |
| 20260830171053 | 28 | 259 | 1.6 | 8.0 | 0.00 | 0.00 | 0.00 | 50 | 1017.1 |
| 20260830170553 | 28 | 7 | 0.0 | 9.7 | 0.00 | 0.00 | 0.00 | 53 | 1017.1 |
| 20260830170052 | 28 | 169 | 0.0 | 9.7 | 0.00 | 0.00 | 0.00 | 54 | 1017.2 |
| 20260830165551 | 28 | 360 | 1.6 | 8.0 | 0.00 | 0.00 | 0.00 | 52 | 1017.3 |
| 20260830165050 | 28 | 9 | 0.0 | 4.8 | 0.00 | 0.00 | 0.00 | 54 | 1017.4 |
| 20260830164600 | 28 | 213 | 1.6 | 9.7 | 0.00 | 0.00 | 0.00 | 54 | 1017.4 |
| 20260830164048 | 27 | 203 | 1.6 | 9.7 | 0.00 | 0.00 | 0.00 | 52 | 1017.4 |
| 20260830163548 | 27 | 10 | 1.6 | 12.9 | 0.00 | 0.00 | 0.00 | 54 | 1017.4 |
| 20260830163048 | 27 | 2 | 0.0 | 12.9 | 0.00 | 0.00 | 0.00 | 56 | 1017.4 |
| 20260830162547 | 27 | 18 | 0.0 | 12.9 | 0.00 | 0.00 | 0.00 | 57 | 1017.5 |
| 20260830162048 | 27 | 221 | 1.6 | 8.0 | 0.00 | 0.00 | 0.00 | 55 | 1017.4 |
| 20260830161545 | 27 | 21 | 0.0 | 8.0 | 0.00 | 0.00 | 0.00 | 58 | 1017.5 |
| 20260830161044 | 27 | 159 | 0.0 | 6.4 | 0.00 | 0.00 | 0.00 | 56 | 1017.5 |
| 20260830160543 | 27 | 166 | 0.0 | 8.0 | 0.00 | 0.00 | 0.00 | 57 | 1017.6 |
| 20260830160042 | 27 | 254 | 0.0 | 8.0 | 0.00 | 0.00 | 0.00 | 56 | 1017.7 |
| 20260830155541 | 27 | 164 | 1.6 | 8.0 | 0.00 | 0.00 | 0.00 | 55 | 1017.7 |
| 20260830155041 | 27 | 325 | 0.0 | 6.4 | 0.00 | 0.00 | 0.00 | 56 | 1017.8 |
| 20260830154539 | 26 | 211 | 0.0 | 6.4 | 0.00 | 0.00 | 0.00 | 57 | 1017.8 |
| 20260830154038 | 26 | 203 | 0.0 | 6.4 | 0.00 | 0.00 | 0.00 | 58 | 1017.9 |
| 20260830153537 | 26 | 149 | 1.6 | 8.0 | 0.00 | 0.00 | 0.00 | 57 | 1017.9 |
| 20260830153035 | 26 | 164 | 1.6 | 8.0 | 0.00 | 0.00 | 0.00 | 57 | 1018.0 |
| 20260830152534 | 26 | 180 | 0.0 | 8.0 | 0.00 | 0.00 | 0.00 | 58 | 1018.1 |
| 20260830152033 | 26 | 37 | 0.0 | 8.0 | 0.00 | 0.00 | 0.00 | 60 | 1018.1 |
| 20260830151532 | 26 | 24 | 0.0 | 8.0 | 0.00 | 0.00 | 0.00 | 60 | 1018.2 |
| 20260830151031 | 25 | 172 | 0.0 | 8.0 | 0.00 | 0.00 | 0.00 | 60 | 1018.3 |
| 20260830150530 | 25 | 207 | 0.0 | 6.4 | 0.00 | 0.00 | 0.00 | 60 | 1018.3 |
| 20260830150029 | 25 | 8 | 0.0 | 6.4 | 0.00 | 0.00 | 0.00 | 60 | 1018.3 |
| 20260830145531 | 25 | 195 | 0.0 | 6.4 | 0.00 | 0.00 | 0.00 | 62 | 1018.4 |
| 20260830145026 | 25 | 198 | 0.0 | 4.8 | 0.00 | 0.00 | 0.00 | 61 | 1018.5 |
| 20260830144525 | 25 | 189 | 0.0 | 6.4 | 0.00 | 0.00 | 0.00 | 64 | 1018.6 |
| 20260830144024 | 25 | 190 | 0.0 | 6.4 | 0.00 | 0.00 | 0.00 | 64 | 1018.6 |
| 20260830143523 | 25 | 292 | 0.0 | 4.8 | 0.00 | 0.00 | 0.00 | 64 | 1018.7 |
| 20260830143022 | 24 | 206 | 0.0 | 3.2 | 0.00 | 0.00 | 0.00 | 67 | 1018.8 |
| 20260830142521 | 24 | 195 | 0.0 | 4.8 | 0.00 | 0.00 | 0.00 | 67 | 1018.8 |
| 20260830142020 | 23 | 182 | 0.0 | 4.8 | 0.00 | 0.00 | 0.00 | 66 | 1018.8 |
| 20260830141532 | 23 | 185 | 0.0 | 4.8 | 0.00 | 0.00 | 0.00 | 66 | 1018.8 |
| 20260830141018 | 23 | 194 | 0.0 | 4.8 | 0.00 | 0.00 | 0.00 | 68 | 1018.7 |
| 20260830140516 | 23 | 199 | 0.0 | 4.8 | 0.00 | 0.00 | 0.00 | 68 | 1018.8 |
| 20260830140015 | 23 | 193 | 1.6 | 6.4 | 0.00 | 0.00 | 0.00 | 68 | 1018.8 |
| 20260830135515 | 23 | 6 | 0.0 | 9.7 | 0.00 | 0.00 | 0.00 | 69 | 1018.9 |
| 20260830135015 | 23 | 208 | 1.6 | 9.7 | 0.00 | 0.00 | 0.00 | 68 | 1018.9 |
| 20260830134522 | 23 | 150 | 0.0 | 3.2 | 0.00 | 0.00 | 0.00 | 69 | 1019.0 |
| 20260830134012 | 22 | 18 | 0.0 | 3.2 | 0.00 | 0.00 | 0.00 | 69 | 1019.0 |
| 20260830133511 | 22 | 344 | 0.0 | 3.2 | 0.00 | 0.00 | 0.00 | 70 | 1019.1 |
| 20260830133009 | 22 | 222 | 0.0 | 1.6 | 0.00 | 0.00 | 0.00 | 72 | 1019.1 |
| 20260830132511 | 22 | 208 | 0.0 | 1.6 | 0.00 | 0.00 | 0.00 | 73 | 1019.2 |
| 20260830132007 | 22 | 207 | 0.0 | 1.6 | 0.00 | 0.00 | 0.00 | 72 | 1019.3 |
| 20260830131507 | 22 | 201 | 0.0 | 1.6 | 0.00 | 0.00 | 0.00 | 74 | 1019.3 |
| 20260830131009 | 22 | 201 | 0.0 | 3.2 | 0.00 | 0.00 | 0.00 | 74 | 1019.3 |
| 20260830130507 | 22 | 199 | 0.0 | 3.2 | 0.00 | 0.00 | 0.00 | 74 | 1019.3 |
| 20260830130011 | 21 | 205 | 0.0 | 0.0 | 0.00 | 0.00 | 0.00 | 74 | 1019.3 |
| 20260830125503 | 21 | 207 | 0.0 | 1.6 | 0.00 | 0.00 | 0.00 | 75 | 1019.4 |
| 20260830125002 | 21 | 208 | 0.0 | 1.6 | 0.00 | 0.00 | 0.00 | 75 | 1019.4 |
| 20260830124501 | 21 | 193 | 0.0 | 1.6 | 0.00 | 0.00 | 0.00 | 77 | 1019.5 |
| 20260830124100 | 21 | 192 | 0.0 | 1.6 | 0.00 | 0.00 | 0.00 | 78 | 1019.6 |
| 20260830123558 | 20 | 202 | 0.0 | 0.0 | 0.00 | 0.00 | 0.00 | 78 | 1019.6 |
| 20260830123125 | 20 | 202 | 0.0 | 1.6 | 0.00 | 0.00 | 0.00 | 79 | 1019.7 |
| 20260830122557 | 20 | 207 | 0.0 | 4.8 | 0.00 | 0.00 | 0.00 | 79 | 1019.6 |
| 20260830122100 | 20 | 6 | 0.0 | 4.8 | 0.00 | 0.00 | 0.00 | 81 | 1019.6 |
| 20260830121602 | 20 | 187 | 0.0 | 0.0 | 0.00 | 0.00 | 0.00 | 81 | 1019.6 |
| 20260830121057 | 20 | 191 | 0.0 | 0.0 | 0.00 | 0.00 | 0.00 | 83 | 1019.6 |
| 20260830120552 | 19 | 191 | 0.0 | 0.0 | 0.00 | 0.00 | 0.00 | 83 | 1019.5 |
| 20260830120055 | 19 | 198 | 0.0 | 0.0 | 0.00 | 0.00 | 0.00 | 83 | 1019.6 |
| 20260830115551 | 19 | 197 | 0.0 | 0.0 | 0.00 | 0.00 | 0.00 | 84 | 1019.6 |
| 20260830115053 | 18 | 200 | 0.0 | 0.0 | 0.00 | 0.00 | 0.00 | 85 | 1019.5 |
| 20260830114601 | 18 | 200 | 0.0 | 0.0 | 0.00 | 0.00 | 0.00 | 85 | 1019.5 |
| 20260830114047 | 18 | 165 | 0.0 | 0.0 | 0.00 | 0.00 | 0.00 | 86 | 1019.6 |
| 20260830113546 | 18 | 199 | 0.0 | 1.6 | 0.00 | 0.00 | 0.00 | 86 | 1019.6 |
| 20260830113045 | 18 | 193 | 0.0 | 1.6 | 0.00 | 0.00 | 0.00 | 86 | 1019.5 |
| 20260830112544 | 18 | 46 | 0.0 | 1.6 | 0.00 | 0.00 | 0.00 | 86 | 1019.5 |
| 20260830112043 | 18 | 49 | 0.0 | 0.0 | 0.00 | 0.00 | 0.00 | 87 | 1019.5 |
| 20260830111543 | 18 | 49 | 0.0 | 0.0 | 0.00 | 0.00 | 0.00 | 87 | 1019.5 |
| 20260830111042 | 18 | 34 | 0.0 | 0.0 | 0.00 | 0.00 | 0.00 | 87 | 1019.4 |
| 20260830110541 | 18 | 34 | 0.0 | 0.0 | 0.00 | 0.00 | 0.00 | 87 | 1019.3 |
| 20260830110040 | 17 | 34 | 0.0 | 1.6 | 0.00 | 0.00 | 0.00 | 87 | 1019.3 |
| 20260830105542 | 17 | 34 | 0.0 | 1.6 | 0.00 | 0.00 | 0.00 | 87 | 1019.3 |
| 20260830105037 | 17 | 36 | 0.0 | 0.0 | 0.00 | 0.00 | 0.00 | 87 | 1019.3 |
| 20260830104546 | 17 | 31 | 0.0 | 0.0 | 0.00 | 0.00 | 0.00 | 88 | 1019.5 |
| 20260830104036 | 17 | 31 | 0.0 | 0.0 | 0.00 | 0.00 | 0.00 | 88 | 1019.5 |
| 20260830103539 | 17 | 36 | 0.0 | 0.0 | 0.00 | 0.00 | 0.00 | 88 | 1019.4 |
| 20260830103038 | 17 | 36 | 0.0 | 0.0 | 0.00 | 0.00 | 0.00 | 88 | 1019.5 |
| 20260830102534 | 16 | 36 | 0.0 | 0.0 | 0.00 | 0.00 | 0.00 | 89 | 1019.6 |
| 20260830102034 | 16 | 36 | 0.0 | 0.0 | 0.00 | 0.00 | 0.00 | 89 | 1019.6 |
| 20260830101540 | 16 | 36 | 0.0 | 0.0 | 0.00 | 0.00 | 0.00 | 89 | 1019.6 |
| 20260830101035 | 16 | 36 | 0.0 | 0.0 | 0.00 | 0.00 | 0.00 | 90 | 1019.5 |
| 20260830100533 | 16 | 36 | 0.0 | 0.0 | 0.00 | 0.00 | 0.00 | 90 | 1019.6 |
| 20260830100033 | 15 | 36 | 0.0 | 0.0 | 0.00 | 0.00 | 0.00 | 90 | 1019.6 |
| 20260830095533 | 15 | 36 | 0.0 | 0.0 | 0.00 | 0.00 | 0.00 | 89 | 1019.5 |
| 20260830095035 | 15 | 36 | 0.0 | 0.0 | 0.00 | 0.00 | 0.00 | 89 | 1019.6 |
| 20260830094537 | 15 | 36 | 0.0 | 0.0 | 0.00 | 0.00 | 0.00 | 89 | 1019.6 |
| 20260830094033 | 15 | 36 | 0.0 | 0.0 | 0.00 | 0.00 | 0.00 | 89 | 1019.7 |
| 20260830093535 | 15 | 36 | 0.0 | 0.0 | 0.00 | 0.00 | 0.00 | 89 | 1019.6 |
| 20260830093032 | 15 | 36 | 0.0 | 0.0 | 0.00 | 0.00 | 0.00 | 88 | 1019.6 |
| 20260830092532 | 15 | 36 | 0.0 | 0.0 | 0.00 | 0.00 | 0.00 | 88 | 1019.6 |
| 20260830092032 | 15 | 36 | 0.0 | 0.0 | 0.00 | 0.00 | 0.00 | 88 | 1019.5 |
| 20260830091535 | 15 | 36 | 0.0 | 0.0 | 0.00 | 0.00 | 0.00 | 87 | 1019.6 |
| 20260830091031 | 15 | 36 | 0.0 | 0.0 | 0.00 | 0.00 | 0.00 | 87 | 1019.6 |
| 20260830090531 | 15 | 36 | 0.0 | 0.0 | 0.00 | 0.00 | 0.00 | 87 | 1019.5 |
| 20260830090030 | 15 | 36 | 0.0 | 0.0 | 0.00 | 0.00 | 0.00 | 86 | 1019.6 |
| 20260830085529 | 16 | 36 | 0.0 | 0.0 | 0.00 | 0.00 | 0.00 | 86 | 1019.6 |
| 20260830085029 | 16 | 36 | 0.0 | 0.0 | 0.00 | 0.00 | 0.00 | 86 | 1019.7 |
| 20260830084528 | 16 | 36 | 0.0 | 0.0 | 0.00 | 0.00 | 0.00 | 86 | 1019.8 |
| 20260830084029 | 16 | 36 | 0.0 | 0.0 | 0.00 | 0.00 | 0.00 | 86 | 1019.9 |
| 20260830083529 | 16 | 36 | 0.0 | 0.0 | 0.00 | 0.00 | 0.00 | 87 | 1019.9 |
| 20260830083028 | 16 | 36 | 0.0 | 0.0 | 0.00 | 0.00 | 0.00 | 87 | 1020.0 |
| 20260830082531 | 15 | 36 | 0.0 | 0.0 | 0.00 | 0.00 | 0.00 | 88 | 1020.0 |
| 20260830082030 | 15 | 36 | 0.0 | 0.0 | 0.00 | 0.00 | 0.00 | 89 | 1020.1 |
| 20260830081543 | 15 | 36 | 0.0 | 0.0 | 0.00 | 0.00 | 0.00 | 89 | 1020.2 |
| 20260830081030 | 15 | 36 | 0.0 | 0.0 | 0.00 | 0.00 | 0.00 | 89 | 1020.3 |
| 20260830080527 | 15 | 36 | 0.0 | 0.0 | 0.00 | 0.00 | 0.00 | 89 | 1020.3 |
| 20260830080026 | 15 | 36 | 0.0 | 0.0 | 0.00 | 0.00 | 0.00 | 89 | 1020.3 |
| 20260830075527 | 15 | 36 | 0.0 | 0.0 | 0.00 | 0.00 | 0.00 | 89 | 1020.2 |
| 20260830075027 | 15 | 36 | 0.0 | 0.0 | 0.00 | 0.00 | 0.00 | 88 | 1020.2 |
| 20260830074527 | 15 | 36 | 0.0 | 0.0 | 0.00 | 0.00 | 0.00 | 88 | 1020.3 |
| 20260830074024 | 15 | 36 | 0.0 | 0.0 | 0.00 | 0.00 | 0.00 | 88 | 1020.2 |
| 20260830073523 | 15 | 36 | 0.0 | 0.0 | 0.00 | 0.00 | 0.00 | 87 | 1020.2 |
| 20260830073027 | 15 | 36 | 0.0 | 0.0 | 0.00 | 0.00 | 0.00 | 87 | 1020.1 |
| 20260830072522 | 16 | 36 | 0.0 | 0.0 | 0.00 | 0.00 | 0.00 | 87 | 1020.0 |
| 20260830072021 | 16 | 36 | 0.0 | 0.0 | 0.00 | 0.00 | 0.00 | 87 | 1020.0 |
| 20260830071521 | 16 | 36 | 0.0 | 0.0 | 0.00 | 0.00 | 0.00 | 87 | 1020.1 |
| 20260830071020 | 16 | 36 | 0.0 | 0.0 | 0.00 | 0.00 | 0.00 | 87 | 1020.0 |
| 20260830070520 | 16 | 36 | 0.0 | 0.0 | 0.00 | 0.00 | 0.00 | 87 | 1019.9 |
| 20260830070019 | 16 | 36 | 0.0 | 0.0 | 0.00 | 0.00 | 0.00 | 87 | 1019.9 |
| 20260830065518 | 16 | 36 | 0.0 | 0.0 | 0.00 | 0.00 | 0.00 | 86 | 1019.9 |
| 20260830065018 | 16 | 36 | 0.0 | 0.0 | 0.00 | 0.00 | 0.00 | 86 | 1019.8 |
| 20260830064518 | 16 | 36 | 0.0 | 0.0 | 0.00 | 0.00 | 0.00 | 86 | 1019.8 |
| 20260830064020 | 16 | 36 | 0.0 | 0.0 | 0.00 | 0.00 | 0.00 | 85 | 1019.7 |
| 20260830063518 | 16 | 36 | 0.0 | 0.0 | 0.00 | 0.00 | 0.00 | 85 | 1019.7 |
| 20260830063025 | 16 | 36 | 0.0 | 0.0 | 0.00 | 0.00 | 0.00 | 85 | 1019.7 |
| 20260830062516 | 16 | 36 | 0.0 | 0.0 | 0.00 | 0.00 | 0.00 | 85 | 1019.7 |
| 20260830062018 | 16 | 36 | 0.0 | 0.0 | 0.00 | 0.00 | 0.00 | 85 | 1019.9 |
| 20260830061516 | 16 | 36 | 0.0 | 0.0 | 0.00 | 0.00 | 0.00 | 85 | 1019.9 |
| 20260830061014 | 16 | 36 | 0.0 | 0.0 | 0.00 | 0.00 | 0.00 | 84 | 1019.9 |
| 20260830060514 | 16 | 36 | 0.0 | 0.0 | 0.00 | 0.00 | 0.00 | 84 | 1019.9 |
| 20260830060020 | 16 | 36 | 0.0 | 0.0 | 0.00 | 0.00 | 0.00 | 84 | 1019.8 |